sensor_id;sensor_type;location;lat;lon;timestamp;P1;durP1;ratioP1;P2;durP2;ratioP2
6133;SDS011;3098;42.678;23.364;2023-11-21T00:00:00;18.63;;;9.83;;
6133;SDS011;3098;42.678;23.364;2023-11-21T00:02:28;29.40;;;11.63;;
6133;SDS011;3098;42.678;23.364;2023-11-21T00:04:56;23.47;;;10.70;;
6133;SDS011;3098;42.678;23.364;2023-11-21T00:07:25;23.30;;;10.77;;
6133;SDS011;3098;42.678;23.364;2023-11-21T00:09:52;23.77;;;10.83;;
6133;SDS011;3098;42.678;23.364;2023-11-21T00:12:22;28.40;;;11.73;;
6133;SDS011;3098;42.678;23.364;2023-11-21T00:14:50;22.03;;;10.73;;
6133;SDS011;3098;42.678;23.364;2023-11-21T00:17:17;22.43;;;11.50;;
6133;SDS011;3098;42.678;23.364;2023-11-21T00:19:44;28.57;;;11.30;;
6133;SDS011;3098;42.678;23.364;2023-11-21T00:22:12;21.83;;;10.77;;
6133;SDS011;3098;42.678;23.364;2023-11-21T00:24:41;22.60;;;11.07;;
6133;SDS011;3098;42.678;23.364;2023-11-21T00:27:08;28.60;;;10.83;;
6133;SDS011;3098;42.678;23.364;2023-11-21T00:29:37;26.63;;;10.57;;
6133;SDS011;3098;42.678;23.364;2023-11-21T00:32:05;31.67;;;11.30;;
6133;SDS011;3098;42.678;23.364;2023-11-21T00:34:34;32.63;;;12.27;;
6133;SDS011;3098;42.678;23.364;2023-11-21T00:37:01;25.57;;;10.67;;
6133;SDS011;3098;42.678;23.364;2023-11-21T00:39:30;32.00;;;11.30;;
6133;SDS011;3098;42.678;23.364;2023-11-21T00:41:58;22.67;;;10.70;;
6133;SDS011;3098;42.678;23.364;2023-11-21T00:44:25;27.47;;;11.20;;
6133;SDS011;3098;42.678;23.364;2023-11-21T00:46:53;27.43;;;11.60;;
6133;SDS011;3098;42.678;23.364;2023-11-21T00:49:21;28.80;;;12.53;;
6133;SDS011;3098;42.678;23.364;2023-11-21T00:51:49;24.47;;;11.43;;
6133;SDS011;3098;42.678;23.364;2023-11-21T00:54:15;25.03;;;11.10;;
6133;SDS011;3098;42.678;23.364;2023-11-21T00:56:43;28.13;;;12.90;;
6133;SDS011;3098;42.678;23.364;2023-11-21T00:59:12;32.13;;;11.50;;
6133;SDS011;3098;42.678;23.364;2023-11-21T01:01:39;29.70;;;11.63;;
6133;SDS011;3098;42.678;23.364;2023-11-21T01:04:10;31.50;;;10.87;;
6133;SDS011;3098;42.678;23.364;2023-11-21T01:06:37;27.27;;;12.17;;
6133;SDS011;3098;42.678;23.364;2023-11-21T01:09:04;30.60;;;11.83;;
6133;SDS011;3098;42.678;23.364;2023-11-21T01:11:34;27.30;;;11.73;;
6133;SDS011;3098;42.678;23.364;2023-11-21T01:14:02;30.43;;;12.37;;
6133;SDS011;3098;42.678;23.364;2023-11-21T01:16:29;29.93;;;12.30;;
6133;SDS011;3098;42.678;23.364;2023-11-21T01:18:59;30.87;;;12.37;;
6133;SDS011;3098;42.678;23.364;2023-11-21T01:21:30;46.07;;;17.60;;
6133;SDS011;3098;42.678;23.364;2023-11-21T01:23:59;37.10;;;14.97;;
6133;SDS011;3098;42.678;23.364;2023-11-21T01:26:26;59.80;;;24.50;;
6133;SDS011;3098;42.678;23.364;2023-11-21T01:28:53;52.70;;;21.87;;
6133;SDS011;3098;42.678;23.364;2023-11-21T01:31:21;58.90;;;24.37;;
6133;SDS011;3098;42.678;23.364;2023-11-21T01:33:48;67.27;;;24.40;;
6133;SDS011;3098;42.678;23.364;2023-11-21T01:36:16;62.60;;;22.47;;
6133;SDS011;3098;42.678;23.364;2023-11-21T01:38:45;55.93;;;21.27;;
6133;SDS011;3098;42.678;23.364;2023-11-21T01:41:13;53.20;;;23.80;;
6133;SDS011;3098;42.678;23.364;2023-11-21T01:43:41;62.50;;;23.03;;
6133;SDS011;3098;42.678;23.364;2023-11-21T01:46:09;61.67;;;22.60;;
6133;SDS011;3098;42.678;23.364;2023-11-21T01:48:37;46.77;;;21.20;;
6133;SDS011;3098;42.678;23.364;2023-11-21T01:51:05;59.00;;;21.53;;
6133;SDS011;3098;42.678;23.364;2023-11-21T01:53:32;57.77;;;23.47;;
6133;SDS011;3098;42.678;23.364;2023-11-21T01:56:03;59.67;;;24.43;;
6133;SDS011;3098;42.678;23.364;2023-11-21T01:58:33;51.73;;;22.60;;
6133;SDS011;3098;42.678;23.364;2023-11-21T02:01:01;50.00;;;22.27;;
6133;SDS011;3098;42.678;23.364;2023-11-21T02:03:29;52.90;;;22.27;;
6133;SDS011;3098;42.678;23.364;2023-11-21T02:05:56;54.03;;;24.17;;
6133;SDS011;3098;42.678;23.364;2023-11-21T02:08:23;54.63;;;22.70;;
6133;SDS011;3098;42.678;23.364;2023-11-21T02:10:52;45.50;;;21.30;;
6133;SDS011;3098;42.678;23.364;2023-11-21T02:13:20;58.53;;;23.40;;
6133;SDS011;3098;42.678;23.364;2023-11-21T02:15:47;57.83;;;22.73;;
6133;SDS011;3098;42.678;23.364;2023-11-21T02:18:17;50.63;;;21.20;;
6133;SDS011;3098;42.678;23.364;2023-11-21T02:20:44;50.27;;;21.97;;
6133;SDS011;3098;42.678;23.364;2023-11-21T02:23:14;47.60;;;20.67;;
6133;SDS011;3098;42.678;23.364;2023-11-21T02:25:41;54.43;;;21.90;;
6133;SDS011;3098;42.678;23.364;2023-11-21T02:28:08;51.83;;;20.00;;
6133;SDS011;3098;42.678;23.364;2023-11-21T02:30:37;57.20;;;21.37;;
6133;SDS011;3098;42.678;23.364;2023-11-21T02:33:05;46.33;;;20.27;;
6133;SDS011;3098;42.678;23.364;2023-11-21T02:35:32;52.30;;;20.67;;
6133;SDS011;3098;42.678;23.364;2023-11-21T02:38:00;50.70;;;20.37;;
6133;SDS011;3098;42.678;23.364;2023-11-21T02:40:28;47.20;;;21.53;;
6133;SDS011;3098;42.678;23.364;2023-11-21T02:42:56;45.50;;;21.27;;
6133;SDS011;3098;42.678;23.364;2023-11-21T02:45:24;55.67;;;19.93;;
6133;SDS011;3098;42.678;23.364;2023-11-21T02:47:51;54.07;;;20.97;;
6133;SDS011;3098;42.678;23.364;2023-11-21T02:50:22;54.07;;;20.93;;
6133;SDS011;3098;42.678;23.364;2023-11-21T02:52:49;53.33;;;20.90;;
6133;SDS011;3098;42.678;23.364;2023-11-21T02:55:16;53.43;;;19.83;;
6133;SDS011;3098;42.678;23.364;2023-11-21T02:57:45;42.87;;;18.90;;
6133;SDS011;3098;42.678;23.364;2023-11-21T03:00:13;38.80;;;17.97;;
6133;SDS011;3098;42.678;23.364;2023-11-21T03:02:41;44.33;;;19.77;;
6133;SDS011;3098;42.678;23.364;2023-11-21T03:05:09;44.37;;;19.63;;
6133;SDS011;3098;42.678;23.364;2023-11-21T03:07:36;44.40;;;20.20;;
6133;SDS011;3098;42.678;23.364;2023-11-21T03:10:06;46.13;;;19.53;;
6133;SDS011;3098;42.678;23.364;2023-11-21T03:12:36;43.53;;;18.43;;
6133;SDS011;3098;42.678;23.364;2023-11-21T03:15:05;51.43;;;20.47;;
6133;SDS011;3098;42.678;23.364;2023-11-21T03:17:33;57.83;;;21.40;;
6133;SDS011;3098;42.678;23.364;2023-11-21T03:20:00;42.87;;;21.27;;
6133;SDS011;3098;42.678;23.364;2023-11-21T03:22:29;48.93;;;21.43;;
6133;SDS011;3098;42.678;23.364;2023-11-21T03:24:56;47.47;;;22.30;;
6133;SDS011;3098;42.678;23.364;2023-11-21T03:27:25;46.57;;;21.93;;
6133;SDS011;3098;42.678;23.364;2023-11-21T03:29:53;50.00;;;21.07;;
6133;SDS011;3098;42.678;23.364;2023-11-21T03:32:23;46.07;;;21.07;;
6133;SDS011;3098;42.678;23.364;2023-11-21T03:34:53;54.50;;;21.17;;
6133;SDS011;3098;42.678;23.364;2023-11-21T03:37:23;50.13;;;20.73;;
6133;SDS011;3098;42.678;23.364;2023-11-21T03:39:52;42.23;;;19.10;;
6133;SDS011;3098;42.678;23.364;2023-11-21T03:42:20;47.43;;;18.33;;
6133;SDS011;3098;42.678;23.364;2023-11-21T03:44:47;43.00;;;17.27;;
6133;SDS011;3098;42.678;23.364;2023-11-21T03:47:15;40.33;;;18.57;;
6133;SDS011;3098;42.678;23.364;2023-11-21T03:49:44;51.43;;;20.30;;
6133;SDS011;3098;42.678;23.364;2023-11-21T03:52:12;50.37;;;20.87;;
6133;SDS011;3098;42.678;23.364;2023-11-21T03:54:39;47.10;;;21.43;;
6133;SDS011;3098;42.678;23.364;2023-11-21T03:57:06;60.83;;;21.03;;
6133;SDS011;3098;42.678;23.364;2023-11-21T03:59:34;47.37;;;20.80;;
6133;SDS011;3098;42.678;23.364;2023-11-21T04:02:01;50.23;;;19.50;;
6133;SDS011;3098;42.678;23.364;2023-11-21T04:04:28;54.07;;;19.67;;
6133;SDS011;3098;42.678;23.364;2023-11-21T04:06:57;50.97;;;20.17;;
6133;SDS011;3098;42.678;23.364;2023-11-21T04:09:24;43.57;;;17.57;;
6133;SDS011;3098;42.678;23.364;2023-11-21T04:11:52;41.97;;;17.93;;
6133;SDS011;3098;42.678;23.364;2023-11-21T04:14:19;47.73;;;18.17;;
6133;SDS011;3098;42.678;23.364;2023-11-21T04:16:46;41.27;;;18.07;;
6133;SDS011;3098;42.678;23.364;2023-11-21T04:19:14;41.07;;;16.90;;
6133;SDS011;3098;42.678;23.364;2023-11-21T04:21:42;35.77;;;15.27;;
6133;SDS011;3098;42.678;23.364;2023-11-21T04:24:11;40.87;;;17.33;;
6133;SDS011;3098;42.678;23.364;2023-11-21T04:26:39;39.07;;;15.77;;
6133;SDS011;3098;42.678;23.364;2023-11-21T04:29:07;33.70;;;15.20;;
6133;SDS011;3098;42.678;23.364;2023-11-21T04:31:34;41.10;;;15.30;;
6133;SDS011;3098;42.678;23.364;2023-11-21T04:34:01;35.67;;;16.53;;
6133;SDS011;3098;42.678;23.364;2023-11-21T04:36:29;34.83;;;15.03;;
6133;SDS011;3098;42.678;23.364;2023-11-21T04:38:57;26.17;;;12.17;;
6133;SDS011;3098;42.678;23.364;2023-11-21T04:41:26;34.47;;;13.27;;
6133;SDS011;3098;42.678;23.364;2023-11-21T04:43:56;33.63;;;14.70;;
6133;SDS011;3098;42.678;23.364;2023-11-21T04:46:26;30.17;;;14.50;;
6133;SDS011;3098;42.678;23.364;2023-11-21T04:48:53;28.40;;;13.77;;
6133;SDS011;3098;42.678;23.364;2023-11-21T04:51:20;31.93;;;14.83;;
6133;SDS011;3098;42.678;23.364;2023-11-21T04:53:48;31.53;;;14.60;;
6133;SDS011;3098;42.678;23.364;2023-11-21T04:56:15;29.27;;;13.87;;
6133;SDS011;3098;42.678;23.364;2023-11-21T04:58:44;32.93;;;13.80;;
6133;SDS011;3098;42.678;23.364;2023-11-21T05:01:12;32.63;;;14.00;;
6133;SDS011;3098;42.678;23.364;2023-11-21T05:03:43;35.97;;;14.70;;
6133;SDS011;3098;42.678;23.364;2023-11-21T05:06:12;35.67;;;15.50;;
6133;SDS011;3098;42.678;23.364;2023-11-21T05:08:39;38.97;;;14.97;;
6133;SDS011;3098;42.678;23.364;2023-11-21T05:11:07;38.70;;;15.93;;
6133;SDS011;3098;42.678;23.364;2023-11-21T05:13:36;32.07;;;14.47;;
6133;SDS011;3098;42.678;23.364;2023-11-21T05:16:06;31.47;;;14.70;;
6133;SDS011;3098;42.678;23.364;2023-11-21T05:18:35;29.10;;;13.17;;
6133;SDS011;3098;42.678;23.364;2023-11-21T05:21:05;30.30;;;13.17;;
6133;SDS011;3098;42.678;23.364;2023-11-21T05:23:33;28.30;;;13.40;;
6133;SDS011;3098;42.678;23.364;2023-11-21T05:26:01;28.57;;;12.77;;
6133;SDS011;3098;42.678;23.364;2023-11-21T05:28:28;41.73;;;14.97;;
6133;SDS011;3098;42.678;23.364;2023-11-21T05:30:56;35.53;;;13.60;;
6133;SDS011;3098;42.678;23.364;2023-11-21T05:33:24;32.27;;;14.53;;
6133;SDS011;3098;42.678;23.364;2023-11-21T05:35:51;34.53;;;15.03;;
6133;SDS011;3098;42.678;23.364;2023-11-21T05:38:20;46.20;;;16.60;;
6133;SDS011;3098;42.678;23.364;2023-11-21T05:40:47;32.33;;;14.30;;
6133;SDS011;3098;42.678;23.364;2023-11-21T05:43:17;34.07;;;14.80;;
6133;SDS011;3098;42.678;23.364;2023-11-21T05:45:45;29.40;;;14.13;;
6133;SDS011;3098;42.678;23.364;2023-11-21T05:48:12;31.20;;;14.20;;
6133;SDS011;3098;42.678;23.364;2023-11-21T05:50:42;33.83;;;15.30;;
6133;SDS011;3098;42.678;23.364;2023-11-21T05:53:09;32.17;;;14.70;;
6133;SDS011;3098;42.678;23.364;2023-11-21T05:55:36;32.07;;;14.57;;
6133;SDS011;3098;42.678;23.364;2023-11-21T05:58:04;34.23;;;15.03;;
6133;SDS011;3098;42.678;23.364;2023-11-21T06:00:34;36.73;;;15.37;;
6133;SDS011;3098;42.678;23.364;2023-11-21T06:03:01;35.50;;;15.40;;
6133;SDS011;3098;42.678;23.364;2023-11-21T06:05:32;40.93;;;16.10;;
6133;SDS011;3098;42.678;23.364;2023-11-21T06:08:02;40.27;;;18.97;;
6133;SDS011;3098;42.678;23.364;2023-11-21T06:10:29;40.03;;;17.30;;
6133;SDS011;3098;42.678;23.364;2023-11-21T06:12:57;45.80;;;19.60;;
6133;SDS011;3098;42.678;23.364;2023-11-21T06:15:25;45.53;;;18.93;;
6133;SDS011;3098;42.678;23.364;2023-11-21T06:17:54;54.00;;;20.30;;
6133;SDS011;3098;42.678;23.364;2023-11-21T06:20:22;53.33;;;21.20;;
6133;SDS011;3098;42.678;23.364;2023-11-21T06:22:53;45.10;;;20.13;;
6133;SDS011;3098;42.678;23.364;2023-11-21T06:25:23;58.00;;;24.07;;
6133;SDS011;3098;42.678;23.364;2023-11-21T06:27:51;57.60;;;25.57;;
6133;SDS011;3098;42.678;23.364;2023-11-21T06:30:18;67.47;;;25.50;;
6133;SDS011;3098;42.678;23.364;2023-11-21T06:32:47;61.53;;;26.60;;
6133;SDS011;3098;42.678;23.364;2023-11-21T06:35:17;57.20;;;23.07;;
6133;SDS011;3098;42.678;23.364;2023-11-21T06:37:46;49.40;;;21.03;;
6133;SDS011;3098;42.678;23.364;2023-11-21T06:40:17;68.00;;;23.13;;
6133;SDS011;3098;42.678;23.364;2023-11-21T06:42:52;47.07;;;18.83;;
6133;SDS011;3098;42.678;23.364;2023-11-21T06:45:20;43.33;;;17.37;;
6133;SDS011;3098;42.678;23.364;2023-11-21T06:47:49;37.10;;;17.92;;
6133;SDS011;3098;42.678;23.364;2023-11-21T06:50:16;42.65;;;17.42;;
6133;SDS011;3098;42.678;23.364;2023-11-21T06:52:44;31.90;;;15.80;;
6133;SDS011;3098;42.678;23.364;2023-11-21T06:55:11;27.65;;;14.63;;
6133;SDS011;3098;42.678;23.364;2023-11-21T06:57:41;31.95;;;15.55;;
6133;SDS011;3098;42.678;23.364;2023-11-21T07:00:09;21.80;;;12.43;;
6133;SDS011;3098;42.678;23.364;2023-11-21T07:02:37;21.92;;;10.63;;
6133;SDS011;3098;42.678;23.364;2023-11-21T07:05:07;30.98;;;10.90;;
6133;SDS011;3098;42.678;23.364;2023-11-21T07:07:36;23.98;;;11.30;;
6133;SDS011;3098;42.678;23.364;2023-11-21T07:10:04;20.20;;;10.98;;
6133;SDS011;3098;42.678;23.364;2023-11-21T07:12:33;15.75;;;9.10;;
6133;SDS011;3098;42.678;23.364;2023-11-21T07:15:03;23.05;;;10.10;;
6133;SDS011;3098;42.678;23.364;2023-11-21T07:17:34;19.13;;;10.02;;
6133;SDS011;3098;42.678;23.364;2023-11-21T07:20:02;19.65;;;10.38;;
6133;SDS011;3098;42.678;23.364;2023-11-21T07:22:32;21.15;;;10.23;;
6133;SDS011;3098;42.678;23.364;2023-11-21T07:24:59;20.67;;;10.23;;
6133;SDS011;3098;42.678;23.364;2023-11-21T07:27:26;21.60;;;11.18;;
6133;SDS011;3098;42.678;23.364;2023-11-21T07:29:54;25.50;;;10.40;;
6133;SDS011;3098;42.678;23.364;2023-11-21T07:32:24;22.08;;;10.98;;
6133;SDS011;3098;42.678;23.364;2023-11-21T07:34:52;24.05;;;11.93;;
6133;SDS011;3098;42.678;23.364;2023-11-21T07:37:22;21.00;;;10.82;;
6133;SDS011;3098;42.678;23.364;2023-11-21T07:39:49;25.73;;;10.85;;
6133;SDS011;3098;42.678;23.364;2023-11-21T07:42:21;27.35;;;11.68;;
6133;SDS011;3098;42.678;23.364;2023-11-21T07:44:49;27.67;;;10.93;;
6133;SDS011;3098;42.678;23.364;2023-11-21T07:47:18;20.77;;;10.13;;
6133;SDS011;3098;42.678;23.364;2023-11-21T07:49:47;26.10;;;10.85;;
6133;SDS011;3098;42.678;23.364;2023-11-21T07:52:16;22.73;;;10.50;;
6133;SDS011;3098;42.678;23.364;2023-11-21T07:54:46;20.58;;;10.15;;
6133;SDS011;3098;42.678;23.364;2023-11-21T07:57:20;18.73;;;10.07;;
6133;SDS011;3098;42.678;23.364;2023-11-21T08:00:01;20.73;;;11.32;;
6133;SDS011;3098;42.678;23.364;2023-11-21T08:02:34;21.55;;;10.82;;
6133;SDS011;3098;42.678;23.364;2023-11-21T08:05:07;22.25;;;10.88;;
6133;SDS011;3098;42.678;23.364;2023-11-21T08:07:37;24.60;;;11.30;;
6133;SDS011;3098;42.678;23.364;2023-11-21T08:10:07;25.35;;;10.00;;
6133;SDS011;3098;42.678;23.364;2023-11-21T08:12:38;21.38;;;11.23;;
6133;SDS011;3098;42.678;23.364;2023-11-21T08:15:08;30.70;;;11.25;;
6133;SDS011;3098;42.678;23.364;2023-11-21T08:17:35;24.98;;;11.07;;
6133;SDS011;3098;42.678;23.364;2023-11-21T08:20:04;21.13;;;10.57;;
6133;SDS011;3098;42.678;23.364;2023-11-21T08:22:37;26.80;;;11.40;;
6133;SDS011;3098;42.678;23.364;2023-11-21T08:25:06;26.10;;;11.23;;
6133;SDS011;3098;42.678;23.364;2023-11-21T08:27:34;33.25;;;12.88;;
6133;SDS011;3098;42.678;23.364;2023-11-21T08:30:02;32.10;;;15.25;;
6133;SDS011;3098;42.678;23.364;2023-11-21T08:32:29;44.40;;;18.48;;
6133;SDS011;3098;42.678;23.364;2023-11-21T08:34:58;39.03;;;17.20;;
6133;SDS011;3098;42.678;23.364;2023-11-21T08:37:28;41.15;;;17.60;;
6133;SDS011;3098;42.678;23.364;2023-11-21T08:39:58;42.72;;;20.98;;
6133;SDS011;3098;42.678;23.364;2023-11-21T08:42:27;40.65;;;20.15;;
6133;SDS011;3098;42.678;23.364;2023-11-21T08:44:55;48.58;;;20.90;;
6133;SDS011;3098;42.678;23.364;2023-11-21T08:47:23;51.63;;;21.33;;
6133;SDS011;3098;42.678;23.364;2023-11-21T08:49:51;47.35;;;21.15;;
6133;SDS011;3098;42.678;23.364;2023-11-21T08:52:19;49.75;;;22.08;;
6133;SDS011;3098;42.678;23.364;2023-11-21T08:54:51;45.78;;;20.90;;
6133;SDS011;3098;42.678;23.364;2023-11-21T08:57:21;50.70;;;20.17;;
6133;SDS011;3098;42.678;23.364;2023-11-21T08:59:50;45.03;;;19.92;;
6133;SDS011;3098;42.678;23.364;2023-11-21T09:02:20;46.15;;;22.58;;
6133;SDS011;3098;42.678;23.364;2023-11-21T09:04:48;46.25;;;22.58;;
6133;SDS011;3098;42.678;23.364;2023-11-21T09:07:17;45.03;;;21.80;;
6133;SDS011;3098;42.678;23.364;2023-11-21T09:09:45;40.28;;;21.75;;
6133;SDS011;3098;42.678;23.364;2023-11-21T09:12:18;45.40;;;23.20;;
6133;SDS011;3098;42.678;23.364;2023-11-21T09:14:46;60.50;;;27.20;;
6133;SDS011;3098;42.678;23.364;2023-11-21T09:17:16;65.45;;;31.65;;
6133;SDS011;3098;42.678;23.364;2023-11-21T09:19:44;83.13;;;35.00;;
6133;SDS011;3098;42.678;23.364;2023-11-21T09:22:15;72.90;;;31.33;;
6133;SDS011;3098;42.678;23.364;2023-11-21T09:24:45;60.35;;;24.08;;
6133;SDS011;3098;42.678;23.364;2023-11-21T09:27:13;49.92;;;26.38;;
6133;SDS011;3098;42.678;23.364;2023-11-21T09:29:45;44.13;;;24.17;;
6133;SDS011;3098;42.678;23.364;2023-11-21T09:32:13;58.47;;;24.33;;
6133;SDS011;3098;42.678;23.364;2023-11-21T09:34:43;49.03;;;24.02;;
6133;SDS011;3098;42.678;23.364;2023-11-21T09:37:11;48.72;;;21.77;;
6133;SDS011;3098;42.678;23.364;2023-11-21T09:39:41;46.40;;;19.23;;
6133;SDS011;3098;42.678;23.364;2023-11-21T09:42:23;41.95;;;18.65;;
6133;SDS011;3098;42.678;23.364;2023-11-21T09:44:58;37.78;;;16.90;;
6133;SDS011;3098;42.678;23.364;2023-11-21T09:47:36;32.35;;;14.88;;
6133;SDS011;3098;42.678;23.364;2023-11-21T09:50:05;32.33;;;16.13;;
6133;SDS011;3098;42.678;23.364;2023-11-21T09:52:36;34.22;;;16.30;;
6133;SDS011;3098;42.678;23.364;2023-11-21T09:55:16;30.45;;;14.88;;
6133;SDS011;3098;42.678;23.364;2023-11-21T09:57:47;27.58;;;14.30;;
6133;SDS011;3098;42.678;23.364;2023-11-21T10:00:18;22.73;;;12.43;;
6133;SDS011;3098;42.678;23.364;2023-11-21T10:02:49;23.80;;;12.35;;
6133;SDS011;3098;42.678;23.364;2023-11-21T10:05:18;26.73;;;13.27;;
6133;SDS011;3098;42.678;23.364;2023-11-21T10:07:47;31.40;;;13.15;;
6133;SDS011;3098;42.678;23.364;2023-11-21T10:10:18;30.95;;;12.95;;
6133;SDS011;3098;42.678;23.364;2023-11-21T10:12:48;30.67;;;12.48;;
6133;SDS011;3098;42.678;23.364;2023-11-21T10:15:22;34.97;;;13.95;;
6133;SDS011;3098;42.678;23.364;2023-11-21T10:17:52;32.42;;;12.68;;
6133;SDS011;3098;42.678;23.364;2023-11-21T10:20:22;31.17;;;14.27;;
6133;SDS011;3098;42.678;23.364;2023-11-21T10:22:52;31.25;;;13.77;;
6133;SDS011;3098;42.678;23.364;2023-11-21T10:25:22;27.10;;;12.52;;
6133;SDS011;3098;42.678;23.364;2023-11-21T10:27:49;24.83;;;11.25;;
6133;SDS011;3098;42.678;23.364;2023-11-21T10:30:29;25.33;;;10.52;;
6133;SDS011;3098;42.678;23.364;2023-11-21T10:33:02;17.30;;;9.48;;
6133;SDS011;3098;42.678;23.364;2023-11-21T10:35:45;25.58;;;10.68;;
6133;SDS011;3098;42.678;23.364;2023-11-21T10:38:16;23.15;;;10.60;;
6133;SDS011;3098;42.678;23.364;2023-11-21T10:40:43;33.42;;;11.73;;
6133;SDS011;3098;42.678;23.364;2023-11-21T10:43:13;22.85;;;9.90;;
6133;SDS011;3098;42.678;23.364;2023-11-21T10:45:41;19.08;;;9.18;;
6133;SDS011;3098;42.678;23.364;2023-11-21T10:48:10;18.48;;;8.90;;
6133;SDS011;3098;42.678;23.364;2023-11-21T10:50:46;19.98;;;10.00;;
6133;SDS011;3098;42.678;23.364;2023-11-21T10:53:15;24.08;;;11.27;;
6133;SDS011;3098;42.678;23.364;2023-11-21T10:55:44;22.77;;;11.55;;
6133;SDS011;3098;42.678;23.364;2023-11-21T10:58:12;21.63;;;9.85;;
6133;SDS011;3098;42.678;23.364;2023-11-21T11:00:43;22.40;;;10.88;;
6133;SDS011;3098;42.678;23.364;2023-11-21T11:03:11;20.20;;;9.80;;
6133;SDS011;3098;42.678;23.364;2023-11-21T11:05:39;19.25;;;9.90;;
6133;SDS011;3098;42.678;23.364;2023-11-21T11:08:16;22.25;;;11.70;;
6133;SDS011;3098;42.678;23.364;2023-11-21T11:10:51;24.83;;;11.30;;
6133;SDS011;3098;42.678;23.364;2023-11-21T11:13:18;23.55;;;10.88;;
6133;SDS011;3098;42.678;23.364;2023-11-21T11:15:48;21.55;;;11.82;;
6133;SDS011;3098;42.678;23.364;2023-11-21T11:18:16;28.50;;;11.68;;
6133;SDS011;3098;42.678;23.364;2023-11-21T11:20:46;25.10;;;12.82;;
6133;SDS011;3098;42.678;23.364;2023-11-21T11:23:22;35.67;;;12.68;;
6133;SDS011;3098;42.678;23.364;2023-11-21T11:26:06;29.88;;;13.77;;
6133;SDS011;3098;42.678;23.364;2023-11-21T11:28:42;35.22;;;13.50;;
6133;SDS011;3098;42.678;23.364;2023-11-21T11:31:21;31.13;;;14.15;;
6133;SDS011;3098;42.678;23.364;2023-11-21T11:34:04;23.92;;;11.93;;
6133;SDS011;3098;42.678;23.364;2023-11-21T11:36:48;33.20;;;13.85;;
6133;SDS011;3098;42.678;23.364;2023-11-21T11:39:27;29.25;;;13.45;;
6133;SDS011;3098;42.678;23.364;2023-11-21T11:41:55;24.80;;;12.13;;
6133;SDS011;3098;42.678;23.364;2023-11-21T11:47:19;33.40;;;15.35;;
6133;SDS011;3098;42.678;23.364;2023-11-21T11:49:56;40.33;;;16.55;;
6133;SDS011;3098;42.678;23.364;2023-11-21T11:52:31;33.03;;;16.77;;
6133;SDS011;3098;42.678;23.364;2023-11-21T11:54:59;31.05;;;15.02;;
6133;SDS011;3098;42.678;23.364;2023-11-21T11:57:29;28.70;;;13.98;;
6133;SDS011;3098;42.678;23.364;2023-11-21T12:00:08;33.08;;;14.25;;
6133;SDS011;3098;42.678;23.364;2023-11-21T12:02:38;28.35;;;14.00;;
6133;SDS011;3098;42.678;23.364;2023-11-21T12:05:09;45.65;;;15.07;;
6133;SDS011;3098;42.678;23.364;2023-11-21T12:07:44;33.55;;;13.98;;
6133;SDS011;3098;42.678;23.364;2023-11-21T12:10:13;32.70;;;13.80;;
6133;SDS011;3098;42.678;23.364;2023-11-21T12:12:46;38.15;;;15.93;;
6133;SDS011;3098;42.678;23.364;2023-11-21T12:15:15;33.15;;;16.83;;
6133;SDS011;3098;42.678;23.364;2023-11-21T12:17:45;42.03;;;17.52;;
6133;SDS011;3098;42.678;23.364;2023-11-21T12:20:13;45.63;;;18.75;;
6133;SDS011;3098;42.678;23.364;2023-11-21T12:22:43;44.20;;;19.83;;
6133;SDS011;3098;42.678;23.364;2023-11-21T12:25:13;49.88;;;21.90;;
6133;SDS011;3098;42.678;23.364;2023-11-21T12:27:44;50.20;;;22.45;;
6133;SDS011;3098;42.678;23.364;2023-11-21T12:30:14;41.72;;;20.67;;
6133;SDS011;3098;42.678;23.364;2023-11-21T12:32:47;49.55;;;19.77;;
6133;SDS011;3098;42.678;23.364;2023-11-21T12:35:17;44.78;;;20.42;;
6133;SDS011;3098;42.678;23.364;2023-11-21T12:37:45;42.60;;;19.83;;
6133;SDS011;3098;42.678;23.364;2023-11-21T12:40:13;51.58;;;18.33;;
6133;SDS011;3098;42.678;23.364;2023-11-21T12:42:44;43.35;;;18.45;;
6133;SDS011;3098;42.678;23.364;2023-11-21T12:45:20;43.75;;;19.75;;
6133;SDS011;3098;42.678;23.364;2023-11-21T12:47:54;39.80;;;19.00;;
6133;SDS011;3098;42.678;23.364;2023-11-21T12:50:24;53.17;;;20.75;;
6133;SDS011;3098;42.678;23.364;2023-11-21T12:52:54;51.08;;;18.70;;
6133;SDS011;3098;42.678;23.364;2023-11-21T12:55:25;45.72;;;18.88;;
6133;SDS011;3098;42.678;23.364;2023-11-21T12:57:53;43.47;;;19.15;;
6133;SDS011;3098;42.678;23.364;2023-11-21T13:00:28;43.40;;;18.65;;
6133;SDS011;3098;42.678;23.364;2023-11-21T13:03:00;48.15;;;19.30;;
6133;SDS011;3098;42.678;23.364;2023-11-21T13:05:29;48.38;;;18.13;;
6133;SDS011;3098;42.678;23.364;2023-11-21T13:07:57;52.05;;;18.13;;
6133;SDS011;3098;42.678;23.364;2023-11-21T13:10:28;50.95;;;19.30;;
6133;SDS011;3098;42.678;23.364;2023-11-21T13:12:57;38.22;;;17.90;;
6133;SDS011;3098;42.678;23.364;2023-11-21T13:15:30;47.22;;;18.45;;
6133;SDS011;3098;42.678;23.364;2023-11-21T13:17:58;40.75;;;18.73;;
6133;SDS011;3098;42.678;23.364;2023-11-21T13:20:27;46.78;;;19.75;;
6133;SDS011;3098;42.678;23.364;2023-11-21T13:22:55;56.35;;;19.60;;
6133;SDS011;3098;42.678;23.364;2023-11-21T13:25:24;41.58;;;18.58;;
6133;SDS011;3098;42.678;23.364;2023-11-21T13:27:52;51.33;;;19.13;;
6133;SDS011;3098;42.678;23.364;2023-11-21T13:30:21;47.22;;;19.92;;
6133;SDS011;3098;42.678;23.364;2023-11-21T13:32:52;47.63;;;19.05;;
6133;SDS011;3098;42.678;23.364;2023-11-21T13:35:24;54.40;;;19.27;;
6133;SDS011;3098;42.678;23.364;2023-11-21T13:38:04;43.65;;;20.40;;
6133;SDS011;3098;42.678;23.364;2023-11-21T13:40:34;42.85;;;19.60;;
6133;SDS011;3098;42.678;23.364;2023-11-21T13:43:08;50.97;;;19.33;;
6133;SDS011;3098;42.678;23.364;2023-11-21T13:45:36;42.58;;;18.95;;
6133;SDS011;3098;42.678;23.364;2023-11-21T13:48:06;41.30;;;20.05;;
6133;SDS011;3098;42.678;23.364;2023-11-21T13:50:52;51.50;;;20.20;;
6133;SDS011;3098;42.678;23.364;2023-11-21T13:53:24;43.80;;;20.10;;
6133;SDS011;3098;42.678;23.364;2023-11-21T13:55:52;46.90;;;20.65;;
6133;SDS011;3098;42.678;23.364;2023-11-21T13:58:22;46.22;;;20.85;;
6133;SDS011;3098;42.678;23.364;2023-11-21T14:01:00;47.95;;;20.33;;
6133;SDS011;3098;42.678;23.364;2023-11-21T14:03:31;44.63;;;20.48;;
6133;SDS011;3098;42.678;23.364;2023-11-21T14:06:09;47.28;;;20.88;;
6133;SDS011;3098;42.678;23.364;2023-11-21T14:08:47;53.55;;;22.52;;
6133;SDS011;3098;42.678;23.364;2023-11-21T14:11:18;47.50;;;19.83;;
6133;SDS011;3098;42.678;23.364;2023-11-21T14:13:47;49.47;;;20.50;;
6133;SDS011;3098;42.678;23.364;2023-11-21T14:16:15;48.78;;;19.95;;
6133;SDS011;3098;42.678;23.364;2023-11-21T14:18:43;44.35;;;20.23;;
6133;SDS011;3098;42.678;23.364;2023-11-21T14:21:22;48.58;;;21.77;;
6133;SDS011;3098;42.678;23.364;2023-11-21T14:23:49;60.47;;;21.52;;
6133;SDS011;3098;42.678;23.364;2023-11-21T14:26:16;53.35;;;21.60;;
6133;SDS011;3098;42.678;23.364;2023-11-21T14:28:44;45.22;;;20.55;;
6133;SDS011;3098;42.678;23.364;2023-11-21T14:31:14;43.67;;;20.63;;
6133;SDS011;3098;42.678;23.364;2023-11-21T14:33:42;47.08;;;20.30;;
6133;SDS011;3098;42.678;23.364;2023-11-21T14:36:10;47.53;;;20.20;;
6133;SDS011;3098;42.678;23.364;2023-11-21T14:38:39;46.20;;;21.08;;
6133;SDS011;3098;42.678;23.364;2023-11-21T14:41:06;43.10;;;18.77;;
6133;SDS011;3098;42.678;23.364;2023-11-21T14:43:34;42.42;;;20.88;;
6133;SDS011;3098;42.678;23.364;2023-11-21T14:46:02;49.42;;;21.88;;
6133;SDS011;3098;42.678;23.364;2023-11-21T14:48:34;46.67;;;20.88;;
6133;SDS011;3098;42.678;23.364;2023-11-21T14:51:07;44.22;;;20.20;;